Time;durP1;ratioP1;P1;durP2;ratioP2;P2;SDS_P1;SDS_P2;PMS_P1;PMS_P2;Temp;Humidity;BMP_temperature;BMP_pressure;BME280_temperature;BME280_humidity;BME280_pressure;Samples;Min_cycle;Max_cycle;Signal;HPM_P1;HPM_P2
2023/01/23 00:01:28;;;;;;;1.08;0.73;;;7.60;96.70;;;;;;4964162;28;20034;-72
2023/01/23 00:03:56;;;;;;;0.95;0.60;;;7.60;96.70;;;;;;4963385;28;20502;-72
2023/01/23 00:06:26;;;;;;;1.63;0.80;;;7.60;96.70;;;;;;4971446;28;20408;-72
2023/01/23 00:08:55;;;;;;;2.22;0.90;;;7.70;96.70;;;;;;4962085;28;20045;-72
2023/01/23 00:11:25;;;;;;;2.20;0.90;;;7.70;96.70;;;;;;4960906;28;20058;-73
2023/01/23 00:13:54;;;;;;;2.03;1.10;;;7.70;96.70;;;;;;4947166;28;20051;-72
2023/01/23 00:16:24;;;;;;;1.02;0.88;;;7.70;96.70;;;;;;4950360;28;20046;-73
2023/01/23 00:18:53;;;;;;;1.48;0.90;;;7.70;96.70;;;;;;4964521;28;20039;-72
2023/01/23 00:21:23;;;;;;;1.02;0.68;;;7.70;96.70;;;;;;4945896;28;20067;-72
2023/01/23 00:23:57;;;;;;;1.58;1.20;;;7.70;96.70;;;;;;4961767;28;20603;-72
2023/01/23 00:26:26;;;;;;;1.42;0.90;;;7.70;96.70;;;;;;4958631;28;20465;-72
2023/01/23 00:28:55;;;;;;;1.90;1.00;;;7.70;96.70;;;;;;4948061;28;20477;-72
2023/01/23 00:31:25;;;;;;;1.60;0.93;;;7.70;96.70;;;;;;4945128;28;20047;-73
2023/01/23 00:33:55;;;;;;;1.25;0.80;;;7.70;96.70;;;;;;4953526;28;20456;-72
2023/01/23 00:36:23;;;;;;;1.27;0.88;;;7.70;96.70;;;;;;4945236;28;20571;-73
2023/01/23 00:38:54;;;;;;;1.75;1.00;;;7.70;96.70;;;;;;4947594;28;20035;-73
2023/01/23 00:41:22;;;;;;;1.92;1.05;;;7.70;96.70;;;;;;4943663;28;20125;-73
2023/01/23 00:43:51;;;;;;;1.38;0.82;;;7.70;96.70;;;;;;4944912;28;20051;-72
2023/01/23 00:46:19;;;;;;;1.40;1.00;;;7.70;96.70;;;;;;4944537;28;20047;-73
2023/01/23 00:48:48;;;;;;;1.33;0.80;;;7.70;96.70;;;;;;4953903;28;20658;-72
2023/01/23 00:51:16;;;;;;;1.80;0.90;;;7.70;96.70;;;;;;4963237;28;20531;-72
2023/01/23 00:53:45;;;;;;;1.80;1.05;;;7.70;96.70;;;;;;4962955;28;20117;-72
2023/01/23 00:56:14;;;;;;;1.40;1.15;;;7.60;96.70;;;;;;4954218;28;20053;-72
2023/01/23 00:58:41;;;;;;;1.90;1.00;;;7.60;96.70;;;;;;4951203;28;20043;-71
2023/01/23 01:01:12;;;;;;;2.58;1.00;;;7.60;96.70;;;;;;4943628;28;20101;-72
2023/01/23 01:03:40;;;;;;;2.05;1.10;;;7.60;96.70;;;;;;4947037;28;20047;-72
2023/01/23 01:06:08;;;;;;;0.95;0.70;;;7.60;96.70;;;;;;4951028;28;20051;-72
2023/01/23 01:08:36;;;;;;;1.17;0.80;;;7.70;96.70;;;;;;4945873;28;20127;-72
2023/01/23 01:11:05;;;;;;;1.50;0.98;;;7.60;96.70;;;;;;4955798;28;20053;-72
2023/01/23 01:13:35;;;;;;;1.10;0.82;;;7.60;96.70;;;;;;4935757;28;20066;-72
2023/01/23 01:16:03;;;;;;;1.40;0.70;;;7.60;96.70;;;;;;4946741;28;20424;-72
2023/01/23 01:18:32;;;;;;;0.95;0.63;;;7.60;96.70;;;;;;4961716;28;20053;-72
2023/01/23 01:21:10;;;;;;;1.33;0.70;;;7.60;96.70;;;;;;4961611;28;20042;-72
2023/01/23 01:23:38;;;;;;;0.77;0.60;;;7.60;96.70;;;;;;4942542;28;20070;-72
2023/01/23 01:26:07;;;;;;;0.98;0.60;;;7.60;96.70;;;;;;4945274;28;20059;-71
2023/01/23 01:28:38;;;;;;;0.63;0.52;;;7.50;96.70;;;;;;4959608;28;20050;-71
2023/01/23 01:31:07;;;;;;;1.50;0.82;;;7.60;96.70;;;;;;4961451;28;20050;-71
2023/01/23 01:33:37;;;;;;;0.90;0.70;;;7.60;96.70;;;;;;4945520;28;20395;-71
2023/01/23 01:36:08;;;;;;;1.73;0.80;;;7.50;96.70;;;;;;4949357;28;20066;-71
2023/01/23 01:38:36;;;;;;;0.93;0.80;;;7.60;96.70;;;;;;4967778;28;20116;-71
2023/01/23 01:41:06;;;;;;;1.92;0.70;;;7.60;96.70;;;;;;4944167;28;20047;-71
2023/01/23 01:43:37;;;;;;;1.00;0.70;;;7.50;96.70;;;;;;4945684;28;20462;-71
2023/01/23 01:46:17;;;;;;;1.60;0.98;;;7.50;96.70;;;;;;4944384;28;20058;-71
2023/01/23 01:49:04;;;;;;;1.58;0.90;;;7.50;96.70;;;;;;4970569;28;20086;-72
2023/01/23 01:51:35;;;;;;;1.00;0.68;;;7.50;96.70;;;;;;4947757;28;20047;-71
2023/01/23 01:54:10;;;;;;;1.10;0.77;;;7.50;96.70;;;;;;4954757;28;20055;-71
2023/01/23 01:56:43;;;;;;;1.60;1.05;;;7.50;96.70;;;;;;4948802;28;20452;-71
2023/01/23 01:59:13;;;;;;;2.00;0.88;;;7.50;96.70;;;;;;4946771;28;20710;-72
2023/01/23 02:01:44;;;;;;;1.00;0.75;;;7.50;96.70;;;;;;4946707;28;20117;-71
2023/01/23 02:04:14;;;;;;;0.95;0.57;;;7.50;96.70;;;;;;4951702;28;20450;-72
2023/01/23 02:06:43;;;;;;;1.50;0.70;;;7.50;96.70;;;;;;4955358;28;20046;-72
2023/01/23 02:09:17;;;;;;;0.98;0.68;;;7.50;96.70;;;;;;4958172;28;20400;-72
2023/01/23 02:11:47;;;;;;;0.80;0.60;;;7.50;96.70;;;;;;4961167;28;20138;-72
2023/01/23 02:14:23;;;;;;;0.93;0.70;;;7.50;96.70;;;;;;4949517;28;20055;-72
2023/01/23 02:16:51;;;;;;;1.48;0.75;;;7.50;96.70;;;;;;4956726;28;20409;-72
2023/01/23 02:19:33;;;;;;;0.93;0.70;;;7.50;96.70;;;;;;4946832;28;20054;-72
2023/01/23 02:22:12;;;;;;;0.68;0.43;;;7.50;96.70;;;;;;4951925;28;20070;-72
2023/01/23 02:24:51;;;;;;;0.75;0.73;;;7.50;96.70;;;;;;4980879;28;20256;-72
2023/01/23 02:27:22;;;;;;;1.30;0.88;;;7.50;96.70;;;;;;4975165;28;20580;-72
2023/01/23 02:29:55;;;;;;;1.00;0.60;;;7.50;96.70;;;;;;4964122;28;20476;-72
2023/01/23 02:32:26;;;;;;;1.13;0.70;;;7.50;96.70;;;;;;4961556;28;20572;-72
2023/01/23 02:34:57;;;;;;;1.40;0.95;;;7.50;96.70;;;;;;4966108;28;20492;-71
2023/01/23 02:37:30;;;;;;;1.92;1.20;;;7.50;96.70;;;;;;4979108;28;20621;-72
2023/01/23 02:39:58;;;;;;;2.22;1.25;;;7.40;96.70;;;;;;4952255;28;20051;-72
2023/01/23 02:42:30;;;;;;;1.48;1.10;;;7.40;96.70;;;;;;4960171;28;20051;-72
2023/01/23 02:45:00;;;;;;;1.40;1.08;;;7.30;96.70;;;;;;4961175;28;20043;-72
2023/01/23 02:47:28;;;;;;;1.63;1.10;;;7.30;96.70;;;;;;4964304;28;20047;-71
2023/01/23 02:49:57;;;;;;;1.25;0.98;;;7.40;96.70;;;;;;4964789;28;20066;-72
2023/01/23 02:52:25;;;;;;;2.55;1.40;;;7.40;96.70;;;;;;4979998;28;20466;-72
2023/01/23 02:54:53;;;;;;;3.50;1.80;;;7.40;96.70;;;;;;4963928;28;20073;-71
2023/01/23 02:57:21;;;;;;;2.05;1.20;;;7.30;96.70;;;;;;4949478;28;20413;-72
2023/01/23 03:02:38;;;;;;;1.08;0.82;;;7.30;96.70;;;;;;4970904;28;20059;-72
2023/01/23 03:05:09;;;;;;;1.48;1.00;;;7.20;96.70;;;;;;4945746;28;20118;-72
2023/01/23 03:07:37;;;;;;;1.70;1.20;;;7.10;96.70;;;;;;4954753;28;20151;-72
2023/01/23 03:10:08;;;;;;;2.40;1.13;;;7.20;96.70;;;;;;4953133;28;20047;-72
2023/01/23 03:12:41;;;;;;;1.33;0.98;;;7.10;96.70;;;;;;4946098;28;20537;-72
2023/01/23 03:15:11;;;;;;;1.33;0.93;;;7.10;96.70;;;;;;4945096;28;20145;-72
2023/01/23 03:17:39;;;;;;;1.27;0.98;;;7.10;96.70;;;;;;4960017;28;20129;-72
2023/01/23 03:20:08;;;;;;;1.30;0.98;;;7.10;96.70;;;;;;4980287;28;20075;-72
2023/01/23 03:22:35;;;;;;;1.58;1.10;;;7.20;96.70;;;;;;4973610;28;20055;-72
2023/01/23 03:25:04;;;;;;;0.77;0.70;;;7.20;96.70;;;;;;4946954;28;20082;-72
2023/01/23 03:27:33;;;;;;;1.25;0.98;;;7.20;96.70;;;;;;4955511;28;20039;-72
2023/01/23 03:30:14;;;;;;;1.77;1.05;;;7.20;96.70;;;;;;4963676;28;20086;-71
2023/01/23 03:32:45;;;;;;;1.85;1.20;;;7.30;96.70;;;;;;4963684;28;20051;-72
2023/01/23 03:35:15;;;;;;;1.70;1.20;;;7.30;96.70;;;;;;4964207;28;20050;-71
2023/01/23 03:37:45;;;;;;;2.30;1.20;;;7.30;96.70;;;;;;4970293;28;20050;-71
2023/01/23 03:43:04;;;;;;;2.10;1.05;;;7.30;96.70;;;;;;4976684;28;20054;-71
2023/01/23 03:45:34;;;;;;;1.65;1.00;;;7.30;96.70;;;;;;4945205;28;20046;-71
2023/01/23 03:48:04;;;;;;;3.47;0.63;;;7.30;96.70;;;;;;4939817;28;20576;-71
2023/01/23 03:50:33;;;;;;;1.23;0.70;;;7.30;96.70;;;;;;4963806;28;20058;-71
2023/01/23 03:53:01;;;;;;;1.15;0.80;;;7.30;96.70;;;;;;4979393;28;20046;-72
2023/01/23 03:55:29;;;;;;;1.25;0.70;;;7.20;96.70;;;;;;4962974;28;20121;-71
2023/01/23 03:57:57;;;;;;;1.27;0.80;;;7.20;96.70;;;;;;4964713;28;20544;-72
2023/01/23 04:00:28;;;;;;;1.00;0.73;;;7.30;96.70;;;;;;4963095;28;20591;-71
2023/01/23 04:03:05;;;;;;;2.13;0.90;;;7.30;96.70;;;;;;4962871;28;20054;-72
2023/01/23 04:05:33;;;;;;;2.00;0.90;;;7.30;96.70;;;;;;4963042;28;20077;-72
2023/01/23 04:08:02;;;;;;;2.13;1.00;;;7.30;96.70;;;;;;4946698;28;20047;-71
2023/01/23 04:10:30;;;;;;;1.35;0.90;;;7.40;96.70;;;;;;4948270;28;20621;-71
2023/01/23 04:13:05;;;;;;;2.80;0.77;;;7.40;96.70;;;;;;4947802;28;20051;-71
2023/01/23 04:15:33;;;;;;;1.58;1.10;;;7.40;96.70;;;;;;4954295;28;20051;-71
2023/01/23 04:18:06;;;;;;;1.77;1.02;;;7.40;96.70;;;;;;4947766;28;20556;-71
2023/01/23 04:20:34;;;;;;;1.45;0.88;;;7.50;96.70;;;;;;4946855;28;20457;-71
2023/01/23 04:23:02;;;;;;;2.25;1.00;;;7.40;96.70;;;;;;4945409;28;20133;-71
2023/01/23 04:25:30;;;;;;;1.00;0.73;;;7.40;96.70;;;;;;4943193;28;20142;-72
2023/01/23 04:27:58;;;;;;;2.05;0.70;;;7.40;96.70;;;;;;4958027;28;20045;-72
2023/01/23 04:30:27;;;;;;;1.00;0.90;;;7.40;96.70;;;;;;4964067;28;20055;-72
2023/01/23 04:32:58;;;;;;;1.33;0.98;;;7.40;96.70;;;;;;4953038;28;20055;-72
2023/01/23 04:35:27;;;;;;;1.48;0.90;;;7.40;96.70;;;;;;4952746;28;20062;-72
2023/01/23 04:37:55;;;;;;;1.98;0.90;;;7.40;96.70;;;;;;4953467;28;20047;-72
2023/01/23 04:40:23;;;;;;;2.60;1.08;;;7.30;96.70;;;;;;4964443;28;20501;-72
2023/01/23 04:42:55;;;;;;;1.65;1.02;;;7.40;96.70;;;;;;4952152;28;20536;-72
2023/01/23 04:45:31;;;;;;;1.25;0.70;;;7.40;96.70;;;;;;4943150;28;20050;-73
2023/01/23 04:48:17;;;;;;;0.82;0.60;;;7.40;96.70;;;;;;4957615;28;20504;-72
2023/01/23 04:50:47;;;;;;;0.82;0.47;;;7.50;96.70;;;;;;4962546;28;20154;-72
2023/01/23 04:53:16;;;;;;;0.75;0.30;;;7.50;96.70;;;;;;4955319;28;20134;-72
2023/01/23 04:55:46;;;;;;;0.32;0.20;;;7.60;96.70;;;;;;4943187;28;20051;-70
2023/01/23 04:58:17;;;;;;;1.02;0.17;;;7.70;96.70;;;;;;4962086;28;20097;-72
2023/01/23 05:00:45;;;;;;;0.20;0.00;;;7.70;96.70;;;;;;4971848;28;20047;-71
2023/01/23 05:03:15;;;;;;;0.10;0.10;;;7.70;96.70;;;;;;4962463;28;20043;-71
2023/01/23 05:05:48;;;;;;;0.22;0.10;;;7.70;96.70;;;;;;4958779;28;20058;-71
2023/01/23 05:08:16;;;;;;;0.20;0.10;;;7.70;96.70;;;;;;4977161;28;20046;-70
2023/01/23 05:10:50;;;;;;;0.63;0.10;;;7.70;96.70;;;;;;4958228;28;20071;-71
2023/01/23 05:13:19;;;;;;;0.10;0.10;;;7.60;96.70;;;;;;4951861;28;20043;-70
2023/01/23 05:15:47;;;;;;;0.20;0.10;;;7.60;96.70;;;;;;4944691;28;20744;-70
2023/01/23 05:18:16;;;;;;;1.98;0.22;;;7.60;96.70;;;;;;4944151;28;20179;-69
2023/01/23 05:20:47;;;;;;;0.30;0.20;;;7.60;96.70;;;;;;4946858;28;20039;-70
2023/01/23 05:23:14;;;;;;;0.38;0.20;;;7.60;96.70;;;;;;4965806;28;20645;-70
2023/01/23 05:25:48;;;;;;;0.50;0.20;;;7.60;96.70;;;;;;4961111;28;20062;-70
2023/01/23 05:28:16;;;;;;;0.40;0.20;;;7.60;96.70;;;;;;4961077;28;20051;-70
2023/01/23 05:30:50;;;;;;;1.27;0.20;;;7.60;96.70;;;;;;4966026;28;20057;-70
2023/01/23 05:33:42;;;;;;;0.35;0.20;;;7.60;96.70;;;;;;4964632;28;20043;-70
2023/01/23 05:36:12;;;;;;;0.30;0.20;;;7.70;96.70;;;;;;4966099;28;20053;-70
2023/01/23 05:38:41;;;;;;;1.13;0.20;;;7.70;96.70;;;;;;4981712;28;20047;-70
2023/01/23 05:41:09;;;;;;;1.20;0.20;;;7.70;96.70;;;;;;4962742;28;20516;-70
2023/01/23 05:44:06;;;;;;;0.20;0.10;;;7.70;96.70;;;;;;4966140;28;20532;-69
2023/01/23 05:46:53;;;;;;;0.10;0.10;;;7.70;96.70;;;;;;4959434;28;20053;-70
2023/01/23 05:49:22;;;;;;;1.15;0.20;;;7.70;96.70;;;;;;4952136;28;20150;-70
2023/01/23 05:51:52;;;;;;;2.65;0.20;;;7.70;96.70;;;;;;4956429;28;20530;-71
2023/01/23 05:54:23;;;;;;;0.30;0.10;;;7.70;96.70;;;;;;4965127;28;20109;-71
2023/01/23 05:56:52;;;;;;;0.25;0.20;;;7.70;96.70;;;;;;4965544;28;20507;-70
2023/01/23 05:59:38;;;;;;;0.40;0.20;;;7.70;96.70;;;;;;4966703;28;20452;-70
2023/01/23 06:02:33;;;;;;;0.60;0.30;;;7.70;96.70;;;;;;4931576;28;20058;-70
2023/01/23 06:05:34;;;;;;;0.55;0.20;;;7.70;96.70;;;;;;4925084;29;20055;-70
2023/01/23 06:08:11;;;;;;;0.30;0.17;;;7.70;96.70;;;;;;4920167;29;20123;-69
2023/01/23 06:10:41;;;;;;;1.55;0.20;;;7.70;96.70;;;;;;4903685;29;20043;-71
2023/01/23 06:13:10;;;;;;;0.20;0.10;;;7.70;96.70;;;;;;4916868;29;20494;-70
2023/01/23 06:15:38;;;;;;;0.40;0.20;;;7.70;96.70;;;;;;4908039;29;20056;-70
2023/01/23 06:18:11;;;;;;;0.75;0.20;;;7.70;96.70;;;;;;4898039;29;20041;-70
2023/01/23 06:20:39;;;;;;;1.38;0.25;;;7.70;96.70;;;;;;4916391;29;20059;-71
2023/01/23 06:23:10;;;;;;;0.20;0.10;;;7.70;96.70;;;;;;4904991;29;20055;-71
2023/01/23 06:25:38;;;;;;;1.80;0.20;;;7.70;96.70;;;;;;4901685;29;20059;-71
2023/01/23 06:28:11;;;;;;;0.40;0.20;;;7.70;96.70;;;;;;4923736;29;20055;-71
2023/01/23 06:30:40;;;;;;;0.73;0.20;;;7.70;96.70;;;;;;4903964;29;20055;-71
2023/01/23 06:33:20;;;;;;;1.17;0.20;;;7.70;96.70;;;;;;4907310;29;20047;-70
2023/01/23 06:35:48;;;;;;;1.15;0.47;;;7.70;96.70;;;;;;4908764;29;20094;-70
2023/01/23 06:38:18;;;;;;;1.20;0.20;;;7.70;96.70;;;;;;4907971;29;20589;-69
2023/01/23 06:40:49;;;;;;;1.10;0.40;;;7.60;96.70;;;;;;4927047;28;20047;-70
2023/01/23 06:43:27;;;;;;;1.15;0.40;;;7.60;96.70;;;;;;4939747;28;20816;-70
2023/01/23 06:45:55;;;;;;;2.20;0.80;;;7.60;96.70;;;;;;4956292;28;20110;-70
2023/01/23 06:48:24;;;;;;;3.70;1.00;;;7.70;96.70;;;;;;4947281;28;20347;-70
2023/01/23 06:50:53;;;;;;;2.38;0.90;;;7.60;96.70;;;;;;4940005;28;20141;-70
2023/01/23 06:53:23;;;;;;;2.25;1.30;;;7.60;96.70;;;;;;4966151;28;20061;-72
2023/01/23 06:55:52;;;;;;;2.72;1.35;;;7.50;96.70;;;;;;4964000;28;20094;-70
2023/01/23 06:58:21;;;;;;;3.20;1.05;;;7.50;96.70;;;;;;4960778;28;20046;-70
2023/01/23 07:00:53;;;;;;;6.18;1.30;;;7.50;96.70;;;;;;4955692;28;20142;-69
2023/01/23 07:04:03;;;;;;;6.72;1.70;;;7.60;96.70;;;;;;4959987;28;20055;-70
2023/01/23 07:06:32;;;;;;;2.83;1.50;;;7.50;96.70;;;;;;4956771;28;20065;-70
2023/01/23 07:09:02;;;;;;;3.45;1.60;;;7.50;96.70;;;;;;4964126;28;20503;-70
2023/01/23 07:11:31;;;;;;;3.60;2.15;;;7.50;96.70;;;;;;4977248;28;20141;-70
2023/01/23 07:13:59;;;;;;;7.13;2.83;;;7.60;96.70;;;;;;4963837;28;20543;-70
2023/01/23 07:16:29;;;;;;;5.03;2.17;;;7.50;96.70;;;;;;4937960;29;20051;-70
2023/01/23 07:19:01;;;;;;;4.18;1.40;;;7.50;96.70;;;;;;4946730;28;20141;-70
2023/01/23 07:21:32;;;;;;;2.97;1.40;;;7.50;96.70;;;;;;4945427;28;20055;-70
2023/01/23 07:24:02;;;;;;;5.22;1.42;;;7.50;96.70;;;;;;4952787;28;20061;-71
2023/01/23 07:26:30;;;;;;;15.55;9.40;;;7.50;96.70;;;;;;4957027;28;20631;-71
2023/01/23 07:28:59;;;;;;;9.25;3.67;;;7.40;96.70;;;;;;4965353;28;20045;-71
2023/01/23 07:31:27;;;;;;;14.15;8.73;;;7.40;96.70;;;;;;4947497;28;20082;-71
2023/01/23 07:33:55;;;;;;;17.30;10.40;;;7.40;96.70;;;;;;4963642;28;20054;-71
2023/01/23 07:36:24;;;;;;;7.25;4.00;;;7.30;96.70;;;;;;4963421;28;20051;-71
2023/01/23 07:38:52;;;;;;;17.58;8.25;;;7.20;96.70;;;;;;4945510;28;20646;-71
2023/01/23 07:41:22;;;;;;;13.18;6.13;;;7.30;96.70;;;;;;4958484;28;20114;-71
2023/01/23 07:43:50;;;;;;;7.95;4.90;;;7.30;96.70;;;;;;4964777;28;20094;-71
2023/01/23 07:46:19;;;;;;;4.80;3.05;;;7.30;96.70;;;;;;4978153;28;20481;-72
2023/01/23 07:48:47;;;;;;;6.90;3.47;;;7.30;96.70;;;;;;4949241;28;20591;-71
2023/01/23 07:51:15;;;;;;;6.95;4.13;;;7.30;96.70;;;;;;4946945;28;20051;-71
2023/01/23 07:53:44;;;;;;;6.38;3.88;;;7.40;96.70;;;;;;4949842;28;20234;-70
2023/01/23 07:56:12;;;;;;;7.05;3.45;;;7.40;96.70;;;;;;4944637;28;20050;-70
2023/01/23 07:58:42;;;;;;;8.85;5.30;;;7.40;96.70;;;;;;4961809;28;20060;-71
2023/01/23 08:01:11;;;;;;;16.55;9.38;;;7.30;96.70;;;;;;4977311;28;20062;-70
2023/01/23 08:03:39;;;;;;;6.65;3.90;;;7.30;96.70;;;;;;4963354;28;20045;-71
2023/01/23 08:06:08;;;;;;;5.95;4.43;;;7.30;96.70;;;;;;4962490;28;20057;-69
2023/01/23 08:08:36;;;;;;;5.78;3.47;;;7.20;96.70;;;;;;4964019;28;20042;-70
2023/01/23 08:11:05;;;;;;;4.70;3.08;;;7.20;96.70;;;;;;4961960;28;20051;-71
2023/01/23 08:13:33;;;;;;;4.68;3.00;;;7.10;96.70;;;;;;4951279;28;20039;-71
2023/01/23 08:16:04;;;;;;;4.38;3.03;;;7.10;96.70;;;;;;4945566;28;20105;-72
2023/01/23 08:18:32;;;;;;;3.30;2.10;;;7.20;96.70;;;;;;4945702;28;20047;-71
2023/01/23 08:21:02;;;;;;;4.20;2.35;;;7.20;96.70;;;;;;4944210;28;20045;-71
2023/01/23 08:23:33;;;;;;;6.07;2.53;;;7.00;96.70;;;;;;4961033;28;20121;-72
2023/01/23 08:26:04;;;;;;;3.55;1.95;;;7.00;96.70;;;;;;4952436;28;20050;-72
2023/01/23 08:28:32;;;;;;;4.63;1.73;;;6.90;96.70;;;;;;4946189;28;20051;-71
2023/01/23 08:31:03;;;;;;;4.57;1.58;;;6.90;96.70;;;;;;4957797;28;20135;-73
2023/01/23 08:33:34;;;;;;;3.60;1.83;;;6.90;96.70;;;;;;4967232;28;20043;-71
2023/01/23 08:36:04;;;;;;;3.22;2.35;;;6.90;96.70;;;;;;4962354;28;20046;-71
2023/01/23 08:38:32;;;;;;;3.83;2.20;;;7.00;96.70;;;;;;4961766;28;20113;-71
2023/01/23 08:41:02;;;;;;;5.45;3.90;;;7.00;96.70;;;;;;4963274;28;20069;-72
2023/01/23 08:43:30;;;;;;;7.53;4.65;;;7.00;96.70;;;;;;4963984;28;20055;-71
2023/01/23 08:45:59;;;;;;;6.20;3.35;;;7.00;96.70;;;;;;4963759;28;20047;-71
2023/01/23 08:48:29;;;;;;;11.77;7.07;;;7.10;96.70;;;;;;4948461;28;20042;-71
2023/01/23 08:51:00;;;;;;;47.38;32.15;;;7.10;96.70;;;;;;4951684;28;20517;-71
2023/01/23 08:53:29;;;;;;;7.82;5.13;;;7.10;96.70;;;;;;4963420;28;20050;-72
2023/01/23 08:56:01;;;;;;;3.40;2.33;;;7.00;96.70;;;;;;4957453;28;20074;-72
2023/01/23 08:58:29;;;;;;;2.60;1.88;;;7.10;96.70;;;;;;4960183;28;20516;-72
2023/01/23 09:00:58;;;;;;;2.88;1.75;;;7.10;96.70;;;;;;4961031;28;20047;-73
2023/01/23 09:03:27;;;;;;;2.78;1.98;;;7.00;96.70;;;;;;4961339;28;20047;-71
2023/01/23 09:06:00;;;;;;;3.13;1.90;;;7.00;96.70;;;;;;4954273;28;20051;-73
2023/01/23 09:08:28;;;;;;;2.38;1.80;;;7.10;96.70;;;;;;4961801;28;20050;-72
2023/01/23 09:11:00;;;;;;;3.10;2.10;;;7.10;96.70;;;;;;4953735;28;20138;-73
2023/01/23 09:13:28;;;;;;;4.03;1.73;;;7.10;96.70;;;;;;4949414;28;20445;-72
2023/01/23 09:15:57;;;;;;;3.13;1.60;;;7.10;96.70;;;;;;4945483;28;20043;-73
2023/01/23 09:18:25;;;;;;;2.63;1.45;;;7.10;96.70;;;;;;4963452;28;20055;-71
2023/01/23 09:20:54;;;;;;;1.50;1.17;;;7.20;96.70;;;;;;4977811;28;20050;-71
2023/01/23 09:23:24;;;;;;;3.30;1.60;;;7.20;96.70;;;;;;4948727;28;20051;-69
2023/01/23 09:25:52;;;;;;;8.18;3.90;;;7.30;96.70;;;;;;4944339;28;20398;-71
2023/01/23 09:28:20;;;;;;;7.70;4.03;;;7.40;96.70;;;;;;4962431;28;20055;-70
2023/01/23 09:30:49;;;;;;;19.08;8.80;;;7.40;96.70;;;;;;4961457;28;20121;-70
2023/01/23 09:33:21;;;;;;;6.70;2.95;;;7.40;96.70;;;;;;4961769;28;20077;-70
2023/01/23 09:35:51;;;;;;;6.68;2.63;;;7.40;96.70;;;;;;4963453;28;20066;-70
2023/01/23 09:38:19;;;;;;;4.70;2.75;;;7.30;96.70;;;;;;4963248;28;20523;-71
2023/01/23 09:40:52;;;;;;;6.72;2.53;;;7.30;96.70;;;;;;4962706;28;20065;-70
2023/01/23 09:43:24;;;;;;;6.63;3.53;;;7.40;96.70;;;;;;4955792;28;20110;-70
2023/01/23 09:46:04;;;;;;;11.90;7.20;;;7.40;96.70;;;;;;4963026;28;20051;-70
2023/01/23 09:48:42;;;;;;;12.55;5.63;;;7.40;96.70;;;;;;4957121;28;20051;-71
2023/01/23 09:51:15;;;;;;;9.20;4.00;;;7.40;96.70;;;;;;4961601;28;20055;-70
2023/01/23 09:53:44;;;;;;;5.38;2.03;;;7.40;96.70;;;;;;4961741;28;20054;-70
2023/01/23 09:56:27;;;;;;;4.68;1.65;;;7.40;96.70;;;;;;4958939;28;20491;-71
2023/01/23 09:59:05;;;;;;;5.05;1.75;;;7.50;96.70;;;;;;4961370;28;20533;-71
2023/01/23 10:01:33;;;;;;;3.60;1.55;;;7.50;96.70;;;;;;4962641;28;20127;-71
2023/01/23 10:04:02;;;;;;;3.88;1.60;;;7.70;96.70;;;;;;4963313;28;20051;-71
2023/01/23 10:06:40;;;;;;;6.72;1.70;;;7.70;96.70;;;;;;4962455;28;20050;-70
2023/01/23 10:09:32;;;;;;;3.20;1.85;;;7.70;96.70;;;;;;4966352;28;20043;-70
2023/01/23 10:12:12;;;;;;;2.70;1.60;;;7.80;96.70;;;;;;4960815;28;20054;-71
2023/01/23 10:14:55;;;;;;;2.92;2.05;;;8.00;96.70;;;;;;4963855;28;20050;-71
2023/01/23 10:17:31;;;;;;;4.30;1.80;;;8.10;96.70;;;;;;4958898;28;20055;-71
2023/01/23 10:20:18;;;;;;;4.65;1.90;;;8.20;96.70;;;;;;4965910;28;20057;-70
2023/01/23 10:22:55;;;;;;;4.38;2.05;;;8.20;96.70;;;;;;4956531;28;20408;-70
2023/01/23 10:25:26;;;;;;;6.15;2.25;;;8.30;96.70;;;;;;4966313;28;20103;-70
2023/01/23 10:28:00;;;;;;;3.63;1.88;;;8.50;96.70;;;;;;4966080;28;20043;-71
2023/01/23 10:30:35;;;;;;;5.00;2.45;;;8.30;96.70;;;;;;4965890;28;20039;-71
2023/01/23 10:33:12;;;;;;;5.30;2.05;;;8.30;96.70;;;;;;4964540;28;20102;-71
2023/01/23 10:35:46;;;;;;;2.47;1.70;;;8.40;96.70;;;;;;4968452;28;20077;-71
2023/01/23 10:38:25;;;;;;;2.65;1.40;;;8.30;96.70;;;;;;4951798;28;20050;-71
2023/01/23 10:43:42;;;;;;;2.72;2.03;;;8.20;96.70;;;;;;4974275;28;20062;-70
2023/01/23 10:46:13;;;;;;;3.20;2.20;;;8.30;96.70;;;;;;4954263;28;20051;-72
2023/01/23 10:48:44;;;;;;;2.67;1.58;;;8.40;96.70;;;;;;4959018;28;20057;-72
2023/01/23 10:51:34;;;;;;;2.83;1.75;;;8.40;96.70;;;;;;4979487;28;20402;-71
2023/01/23 10:54:03;;;;;;;2.03;1.27;;;8.20;96.70;;;;;;4961741;28;20055;-71
2023/01/23 10:56:36;;;;;;;2.78;1.50;;;8.10;96.70;;;;;;4949003;28;20134;-71
2023/01/23 10:59:06;;;;;;;2.60;1.70;;;8.10;96.70;;;;;;4964551;28;20407;-71
2023/01/23 11:01:35;;;;;;;2.30;1.40;;;8.00;96.70;;;;;;4979947;28;20425;-71
2023/01/23 11:04:16;;;;;;;3.45;1.80;;;8.00;96.70;;;;;;4965407;28;20051;-71
2023/01/23 11:06:58;;;;;;;2.35;1.40;;;8.00;96.70;;;;;;4963772;28;20046;-70
2023/01/23 11:09:27;;;;;;;3.08;1.65;;;8.00;96.70;;;;;;4957893;28;20070;-71
2023/01/23 11:12:03;;;;;;;3.05;1.90;;;8.10;96.70;;;;;;4960673;28;20043;-71
2023/01/23 11:14:33;;;;;;;3.10;1.65;;;8.10;96.70;;;;;;4948382;28;20885;-70
2023/01/23 11:17:03;;;;;;;2.85;1.83;;;8.10;96.70;;;;;;4953512;28;20043;-71
2023/01/23 11:19:32;;;;;;;3.60;1.98;;;8.10;96.70;;;;;;4954241;28;20531;-69
2023/01/23 11:22:01;;;;;;;5.00;1.63;;;8.10;96.70;;;;;;4954235;28;20050;-70
2023/01/23 11:24:35;;;;;;;2.92;2.00;;;8.20;96.70;;;;;;4958792;28;20509;-70
2023/01/23 11:27:17;;;;;;;3.97;2.38;;;8.20;96.70;;;;;;4961075;28;20505;-70
2023/01/23 11:30:10;;;;;;;4.10;2.80;;;8.20;96.70;;;;;;4963260;28;20195;-70
2023/01/23 11:32:46;;;;;;;3.70;2.53;;;8.10;96.70;;;;;;4935781;28;20079;-70
2023/01/23 11:35:19;;;;;;;5.32;2.75;;;8.10;96.70;;;;;;4945069;28;20065;-71
2023/01/23 11:37:47;;;;;;;3.72;2.60;;;8.10;96.70;;;;;;4958552;28;20054;-71
2023/01/23 11:40:17;;;;;;;4.38;3.00;;;8.10;96.70;;;;;;4954021;28;20501;-71
2023/01/23 11:42:46;;;;;;;6.22;2.72;;;8.10;96.70;;;;;;4962845;28;20150;-70
2023/01/23 11:45:27;;;;;;;4.78;3.30;;;8.20;96.70;;;;;;4979006;28;20497;-70
2023/01/23 11:48:08;;;;;;;8.52;5.25;;;8.10;96.70;;;;;;4961969;28;20050;-70
2023/01/23 11:50:42;;;;;;;13.25;7.65;;;8.10;96.70;;;;;;4958789;28;20137;-71
2023/01/23 11:53:30;;;;;;;17.50;11.00;;;8.20;96.70;;;;;;4960456;28;20053;-70
2023/01/23 11:56:36;;;;;;;17.95;12.25;;;8.20;96.70;;;;;;4955927;28;21559;-70
2023/01/23 11:59:30;;;;;;;7.70;5.18;;;8.20;96.70;;;;;;4955331;28;20133;-70
2023/01/23 12:02:42;;;;;;;6.13;4.32;;;8.30;96.70;;;;;;4937215;28;20043;-70
2023/01/23 12:05:34;;;;;;;6.82;4.75;;;8.20;96.70;;;;;;4896400;29;20144;-70
2023/01/23 12:08:14;;;;;;;11.13;5.82;;;8.20;96.70;;;;;;4963529;28;20054;-70
2023/01/23 12:10:54;;;;;;;7.53;4.95;;;8.20;96.70;;;;;;4963495;28;20055;-70
2023/01/23 12:13:43;;;;;;;7.72;6.60;;;8.30;96.70;;;;;;4963325;28;20047;-70
2023/01/23 12:16:19;;;;;;;8.75;5.90;;;8.40;96.70;;;;;;4964244;28;20130;-70
2023/01/23 12:19:10;;;;;;;6.68;5.40;;;8.40;96.70;;;;;;4964617;28;20050;-70
2023/01/23 12:21:46;;;;;;;8.90;6.18;;;8.40;96.70;;;;;;4963229;28;20074;-71
2023/01/23 12:24:24;;;;;;;10.60;6.70;;;8.40;96.70;;;;;;4945567;28;20051;-69
2023/01/23 12:27:01;;;;;;;9.05;5.63;;;8.30;96.70;;;;;;4955870;28;20054;-70
2023/01/23 12:29:50;;;;;;;5.05;3.10;;;8.20;96.70;;;;;;4961818;28;20047;-70
2023/01/23 12:32:42;;;;;;;12.43;10.25;;;8.10;96.70;;;;;;4964123;28;20050;-70
2023/01/23 12:35:28;;;;;;;13.55;8.90;;;8.10;96.70;;;;;;4962818;28;20050;-70
2023/01/23 12:38:18;;;;;;;19.85;13.05;;;8.10;96.70;;;;;;4963766;28;20054;-70
2023/01/23 12:40:51;;;;;;;25.73;15.35;;;8.10;96.70;;;;;;4962066;28;20067;-70
2023/01/23 12:43:32;;;;;;;20.23;12.27;;;8.10;96.70;;;;;;4955854;28;20059;-70
2023/01/23 12:46:05;;;;;;;7.07;5.07;;;8.00;96.70;;;;;;4963646;28;20058;-70
2023/01/23 12:48:38;;;;;;;6.88;3.75;;;7.90;96.70;;;;;;4945279;28;20043;-70
2023/01/23 12:51:12;;;;;;;4.28;2.85;;;7.90;96.70;;;;;;4945277;28;20047;-70
2023/01/23 12:53:43;;;;;;;3.90;2.42;;;7.90;96.70;;;;;;4960626;28;20055;-70
2023/01/23 12:56:14;;;;;;;3.38;2.08;;;7.80;96.70;;;;;;4953164;28;20070;-70
2023/01/23 12:58:49;;;;;;;5.55;3.35;;;7.80;96.70;;;;;;4943531;28;20051;-70
2023/01/23 13:01:31;;;;;;;3.67;2.38;;;7.80;96.70;;;;;;4950738;28;20082;-70
2023/01/23 13:04:22;;;;;;;5.25;2.72;;;7.80;96.70;;;;;;4962402;28;20436;-69
2023/01/23 13:07:08;;;;;;;3.15;1.70;;;7.80;96.70;;;;;;4954098;28;20055;-70
2023/01/23 13:10:01;;;;;;;3.65;2.38;;;7.80;96.70;;;;;;4942693;28;20078;-70
2023/01/23 13:12:29;;;;;;;4.78;3.03;;;7.80;96.70;;;;;;4957404;28;20086;-70
2023/01/23 13:15:29;;;;;;;4.45;2.75;;;7.90;96.70;;;;;;4962123;28;20129;-70
2023/01/23 13:27:40;;;;;;;7.53;4.97;;;7.90;96.70;;;;;;4944692;28;20501;-70
2023/01/23 13:30:39;;;;;;;4.20;3.20;;;7.80;96.70;;;;;;4947349;28;20051;-69
2023/01/23 13:33:40;;;;;;;4.05;3.15;;;7.80;96.70;;;;;;4922511;28;20055;-69
2023/01/23 13:36:13;;;;;;;6.38;4.30;;;7.80;96.70;;;;;;4947380;28;20131;-69
2023/01/23 13:38:41;;;;;;;7.47;5.28;;;7.90;96.70;;;;;;4961956;28;20101;-69
2023/01/23 13:41:30;;;;;;;8.88;5.28;;;7.90;96.70;;;;;;4956065;28;20580;-70
2023/01/23 13:44:04;;;;;;;3.97;2.58;;;7.90;96.70;;;;;;4966314;28;20046;-70